createdAt,value
2022-11-25T00:00:53.861Z,98353.50
2022-11-25T00:03:20.567Z,98345.69
2022-11-25T00:05:47.134Z,98343.09
2022-11-25T00:08:13.742Z,98347.44
2022-11-25T00:10:40.238Z,98346.53
2022-11-25T00:13:06.920Z,98337.88
2022-11-25T00:15:34.167Z,98339.53
2022-11-25T00:18:00.648Z,98335.19
2022-11-25T00:20:27.230Z,98342.13
2022-11-25T00:22:53.778Z,98337.78
2022-11-25T00:25:20.375Z,98348.19
2022-11-25T00:27:46.953Z,98342.97
2022-11-25T00:30:13.950Z,98327.38
2022-11-25T00:32:40.455Z,98337.81
2022-11-25T00:35:07.415Z,98330.03
2022-11-25T00:37:33.981Z,98333.50
2022-11-25T00:40:00.538Z,98330.91
2022-11-25T00:42:45.660Z,98327.44
2022-11-25T00:45:12.490Z,98333.47
2022-11-25T00:47:38.980Z,98337.78
2022-11-25T00:50:06.049Z,98337.78
2022-11-25T00:52:37.127Z,98337.78
2022-11-25T00:55:04.657Z,98336.03
2022-11-25T00:57:31.456Z,98341.28
2022-11-25T00:59:58.043Z,98353.41
2022-11-25T01:02:24.630Z,98350.84
2022-11-25T01:04:51.329Z,98356.06
2022-11-25T01:07:18.507Z,98350.84
2022-11-25T01:09:45.280Z,98350.03
2022-11-25T01:12:11.952Z,98343.91
2022-11-25T01:14:39.227Z,98344.75
2022-11-25T01:17:06.061Z,98349.06
2022-11-25T01:19:33.339Z,98347.31
2022-11-25T01:22:00.254Z,98337.78
2022-11-25T01:24:26.820Z,98339.53
2022-11-25T01:26:55.252Z,98344.75
2022-11-25T01:29:21.893Z,98342.13
2022-11-25T01:31:48.791Z,98338.66
2022-11-25T01:34:18.586Z,98338.63
2022-11-25T01:36:45.356Z,98347.31
2022-11-25T01:39:20.563Z,98344.69
2022-11-25T01:41:48.455Z,98339.47
2022-11-25T01:44:16.882Z,98342.97
2022-11-25T01:46:52.560Z,98345.59
2022-11-25T01:50:00.823Z,98350.78
2022-11-25T01:52:34.412Z,98344.66
2022-11-25T01:55:11.064Z,98346.38
2022-11-25T01:58:02.570Z,98347.25
2022-11-25T02:00:29.246Z,98340.28
2022-11-25T02:02:58.031Z,98339.44
2022-11-25T02:05:50.804Z,98342.06
2022-11-25T02:08:19.465Z,98338.53
2022-11-25T02:10:46.642Z,98341.13
2022-11-25T02:13:13.401Z,98335.03
2022-11-25T02:15:40.147Z,98337.63
2022-11-25T02:18:07.014Z,98335.06
2022-11-25T02:20:33.777Z,98332.44
2022-11-25T02:23:08.447Z,98329.84
2022-11-25T02:25:37.680Z,98330.69
2022-11-25T02:28:10.748Z,98328.97
2022-11-25T02:30:38.331Z,98327.19
2022-11-25T02:33:05.958Z,98326.31
2022-11-25T02:35:35.846Z,98323.59
2022-11-25T02:38:16.189Z,98326.25
2022-11-25T02:40:51.761Z,98325.31
2022-11-25T02:43:18.928Z,98324.44
2022-11-25T02:45:52.532Z,98325.34
2022-11-25T02:48:19.253Z,98313.16
2022-11-25T02:50:45.847Z,98314.03
2022-11-25T02:53:12.636Z,98319.28
2022-11-25T02:55:39.241Z,98308.88
2022-11-25T02:58:05.876Z,98310.63
2022-11-25T03:00:32.459Z,98315.06
2022-11-25T03:02:59.250Z,98310.78
2022-11-25T03:05:26.204Z,98318.59
2022-11-25T03:07:53.112Z,98324.66
2022-11-25T03:10:19.765Z,98319.47
2022-11-25T03:12:46.345Z,98322.03
2022-11-25T03:15:13.032Z,98318.53
2022-11-25T03:17:39.660Z,98310.66
2022-11-25T03:20:08.226Z,98323.69
2022-11-25T03:22:35.902Z,98314.19
2022-11-25T03:25:02.562Z,98319.34
2022-11-25T03:27:30.409Z,98308.97
2022-11-25T03:29:57.157Z,98318.47
2022-11-25T03:32:23.747Z,98319.38
2022-11-25T03:34:50.369Z,98316.72
2022-11-25T03:37:17.081Z,98318.50
2022-11-25T03:39:43.716Z,98313.31
2022-11-25T03:42:10.244Z,98315.03
2022-11-25T03:44:37.236Z,98314.19
2022-11-25T03:47:04.534Z,98317.59
2022-11-25T03:49:31.137Z,98314.13
2022-11-25T03:51:58.113Z,98321.97
2022-11-25T03:54:24.850Z,98315.91
2022-11-25T03:56:51.460Z,98316.78
2022-11-25T03:59:17.986Z,98320.28
2022-11-25T04:01:44.774Z,98325.50
2022-11-25T04:04:11.947Z,98316.78
2022-11-25T04:06:39.595Z,98318.56
2022-11-25T04:09:07.500Z,98311.56
2022-11-25T04:11:53.120Z,98315.06
2022-11-25T04:14:19.855Z,98320.25
2022-11-25T04:16:46.503Z,98319.28
2022-11-25T04:19:13.132Z,98311.47
2022-11-25T04:21:39.799Z,98309.75
2022-11-25T04:24:06.962Z,98309.63
2022-11-25T04:26:33.655Z,98305.31
2022-11-25T04:29:00.558Z,98304.44
2022-11-25T04:31:27.137Z,98302.72
2022-11-25T04:33:53.647Z,98293.97
2022-11-25T04:36:20.444Z,98290.53
2022-11-25T04:38:47.018Z,98298.41
2022-11-25T04:41:13.669Z,98303.59
2022-11-25T04:43:40.495Z,98296.69
2022-11-25T04:46:14.008Z,98297.56
2022-11-25T04:48:41.090Z,98306.31
2022-11-25T04:51:07.808Z,98296.78
2022-11-25T04:53:34.328Z,98297.66
2022-11-25T04:56:00.822Z,98302.91
2022-11-25T04:58:45.605Z,98299.47
2022-11-25T05:01:12.264Z,98297.78
2022-11-25T05:03:43.582Z,98301.25
2022-11-25T05:06:13.138Z,98311.63
2022-11-25T05:08:39.579Z,98308.13
2022-11-25T05:11:06.064Z,98311.50
2022-11-25T05:13:32.532Z,98311.47
2022-11-25T05:16:00.273Z,98312.31
2022-11-25T05:18:26.776Z,98317.53
2022-11-25T05:20:53.237Z,98312.25
2022-11-25T05:23:19.790Z,98309.69
2022-11-25T05:25:46.477Z,98312.28
2022-11-25T05:28:13.000Z,98296.63
2022-11-25T05:30:39.552Z,98302.72
2022-11-25T05:33:06.048Z,98306.22
2022-11-25T05:35:32.548Z,98310.56
2022-11-25T05:38:01.073Z,98307.13
2022-11-25T05:40:27.569Z,98301.06
2022-11-25T05:42:54.083Z,98294.13
2022-11-25T05:45:20.592Z,98295.88
2022-11-25T05:47:47.061Z,98297.66
2022-11-25T05:50:13.572Z,98301.09
2022-11-25T05:52:40.059Z,98305.41
2022-11-25T05:55:07.192Z,98297.63
2022-11-25T05:57:33.675Z,98298.44
2022-11-25T06:00:00.197Z,98292.28
2022-11-25T06:02:26.808Z,98296.56
2022-11-25T06:04:53.343Z,98298.25
2022-11-25T06:07:19.862Z,98299.19
2022-11-25T06:09:46.337Z,98320.06
2022-11-25T06:12:12.805Z,98317.44
2022-11-25T06:14:39.353Z,98319.31
2022-11-25T06:17:05.826Z,98319.28
2022-11-25T06:19:32.435Z,98318.44
2022-11-25T06:21:59.111Z,98322.78
2022-11-25T06:24:25.836Z,98325.41
2022-11-25T06:26:52.631Z,98326.28
2022-11-25T06:29:19.265Z,98321.09
2022-11-25T06:31:45.866Z,98319.41
2022-11-25T06:34:12.575Z,98328.94
2022-11-25T06:36:39.182Z,98323.75
2022-11-25T06:39:05.847Z,98324.59
2022-11-25T06:41:32.391Z,98319.38
2022-11-25T06:43:58.981Z,98329.75
2022-11-25T06:46:25.733Z,98320.97
2022-11-25T06:48:55.824Z,98321.88
2022-11-25T06:51:24.610Z,98327.09
2022-11-25T06:53:51.204Z,98314.94
2022-11-25T06:56:23.644Z,98320.16
2022-11-25T06:58:51.609Z,98318.47
2022-11-25T07:01:27.300Z,98311.50
2022-11-25T07:04:03.343Z,98313.16
2022-11-25T07:06:31.540Z,98316.56
2022-11-25T07:08:58.512Z,98316.53
2022-11-25T07:11:32.311Z,98318.19
2022-11-25T07:14:05.635Z,98310.28
2022-11-25T07:16:33.536Z,98316.31
2022-11-25T07:19:02.192Z,98316.25
2022-11-25T07:21:32.313Z,98322.34
2022-11-25T07:24:01.523Z,98324.88
2022-11-25T07:26:31.305Z,98322.28
2022-11-25T07:29:00.787Z,98329.31
2022-11-25T07:31:33.499Z,98327.56
2022-11-25T07:34:20.595Z,98326.69
2022-11-25T07:36:49.374Z,98335.41
2022-11-25T07:39:21.741Z,98330.94
2022-11-25T07:41:53.119Z,98326.59
2022-11-25T07:44:20.529Z,98321.28
2022-11-25T07:46:49.231Z,98324.72
2022-11-25T07:49:22.210Z,98326.44
2022-11-25T07:51:54.260Z,98326.44
2022-11-25T07:54:21.882Z,98328.16
2022-11-25T07:56:49.827Z,98333.25
2022-11-25T07:59:20.018Z,98331.56
2022-11-25T08:01:48.567Z,98332.25
2022-11-25T08:04:20.067Z,98344.38
2022-11-25T08:06:49.821Z,98342.47
2022-11-25T08:09:19.662Z,98338.78
2022-11-25T08:11:47.119Z,98341.31
2022-11-25T08:14:13.866Z,98340.31
2022-11-25T08:16:40.522Z,98344.78
2022-11-25T08:19:11.674Z,98339.53
2022-11-25T08:21:38.511Z,98350.00
2022-11-25T08:24:05.618Z,98335.97
2022-11-25T08:26:38.602Z,98348.94
2022-11-25T08:29:07.053Z,98346.13
2022-11-25T08:31:38.533Z,98349.50
2022-11-25T08:34:08.782Z,98346.88
2022-11-25T08:36:35.869Z,98351.16
2022-11-25T08:39:22.483Z,98351.97
2022-11-25T08:41:52.913Z,98342.41
2022-11-25T08:44:19.504Z,98352.69
2022-11-25T08:46:46.388Z,98343.13
2022-11-25T08:49:14.259Z,98343.03
2022-11-25T08:51:40.951Z,98347.31
2022-11-25T08:54:08.720Z,98355.97
2022-11-25T08:56:35.690Z,98348.06
2022-11-25T08:59:02.774Z,98342.75
2022-11-25T09:01:29.822Z,98348.78
2022-11-25T09:03:57.217Z,98355.66
2022-11-25T09:06:26.284Z,98353.84
2022-11-25T09:08:56.563Z,98351.91
2022-11-25T09:11:24.233Z,98361.34
2022-11-25T09:13:50.991Z,98366.38
2022-11-25T09:16:17.658Z,98363.56
2022-11-25T09:18:45.735Z,98361.91
2022-11-25T09:21:16.412Z,98372.28
2022-11-25T09:23:43.487Z,98374.13
2022-11-25T09:26:23.438Z,98372.13
2022-11-25T09:28:50.182Z,98380.81
2022-11-25T09:31:17.019Z,98380.66
2022-11-25T09:33:44.611Z,98385.78
2022-11-25T09:36:13.267Z,98383.97
2022-11-25T09:38:43.256Z,98395.19
2022-11-25T09:41:59.358Z,98395.16
2022-11-25T09:45:09.591Z,98389.75
2022-11-25T09:47:43.564Z,98397.59
2022-11-25T09:50:51.090Z,98401.09
2022-11-25T09:53:43.366Z,98397.53
2022-11-25T09:56:28.651Z,98401.94
2022-11-25T09:59:20.543Z,98398.28
2022-11-25T10:02:03.035Z,98401.88
2022-11-25T10:04:38.169Z,98407.94
2022-11-25T10:07:11.309Z,98399.25
2022-11-25T10:09:38.218Z,98400.00
2022-11-25T10:12:34.621Z,98399.22
2022-11-25T10:15:13.284Z,98394.03
2022-11-25T10:17:52.029Z,98403.66
2022-11-25T10:20:26.545Z,98406.19
2022-11-25T10:23:00.917Z,98404.31
2022-11-25T10:25:46.031Z,98400.72
2022-11-25T10:28:23.132Z,98401.50
2022-11-25T10:30:52.725Z,98399.59
2022-11-25T10:33:30.752Z,98404.00
2022-11-25T10:36:06.797Z,98399.44
2022-11-25T10:38:42.623Z,98397.41
2022-11-25T10:41:15.796Z,98398.16
2022-11-25T10:43:43.709Z,98392.78
2022-11-25T10:46:22.533Z,98391.81
2022-11-25T10:49:01.835Z,98390.66
2022-11-25T10:51:47.534Z,98394.69
2022-11-25T10:54:27.581Z,98385.97
2022-11-25T10:57:18.875Z,98383.47
2022-11-25T10:59:58.983Z,98393.44
2022-11-25T11:02:34.716Z,98384.72
2022-11-25T11:05:10.409Z,98380.25
2022-11-25T11:07:40.952Z,98385.59
2022-11-25T11:10:25.949Z,98386.56
2022-11-25T11:13:02.597Z,98384.00
2022-11-25T11:15:44.599Z,98388.19
2022-11-25T11:18:25.056Z,98395.59
2022-11-25T11:21:00.373Z,98391.25
2022-11-25T11:23:28.941Z,98388.41
2022-11-25T11:26:09.834Z,98388.38
2022-11-25T11:28:37.268Z,98394.31
2022-11-25T11:31:08.535Z,98393.44
2022-11-25T11:33:48.783Z,98391.94
2022-11-25T11:36:38.542Z,98396.94
2022-11-25T11:39:23.918Z,98396.16
2022-11-25T11:42:01.228Z,98386.38
2022-11-25T11:44:40.246Z,98394.41
2022-11-25T11:47:06.844Z,98403.28
2022-11-25T11:50:03.127Z,98398.19
2022-11-25T11:53:07.306Z,98396.50
2022-11-25T11:56:11.927Z,98394.00
2022-11-25T11:58:55.378Z,98405.78
2022-11-25T12:01:30.736Z,98396.16
2022-11-25T12:04:22.544Z,98403.00
2022-11-25T12:07:27.203Z,98401.56
2022-11-25T12:10:14.904Z,98406.06
2022-11-25T12:13:00.408Z,98407.56
2022-11-25T12:15:54.444Z,98408.53
2022-11-25T12:18:48.197Z,98407.66
2022-11-25T12:21:52.156Z,98416.59
2022-11-25T12:24:51.097Z,98422.88
2022-11-25T12:27:23.896Z,98410.75
2022-11-25T12:30:13.708Z,98413.34
2022-11-25T12:33:05.155Z,98422.16
2022-11-25T12:35:57.367Z,98419.84
2022-11-25T12:38:44.290Z,98425.41
2022-11-25T12:41:23.012Z,98427.34
2022-11-25T12:44:00.680Z,98430.03
2022-11-25T12:46:33.177Z,98438.91
2022-11-25T12:49:00.648Z,98455.59
2022-11-25T12:51:54.362Z,98443.38
2022-11-25T12:54:30.205Z,98454.75
2022-11-25T12:57:30.736Z,98454.84
2022-11-25T13:03:17.095Z,98459.78
2022-11-25T13:05:49.567Z,98466.78
2022-11-25T13:08:29.189Z,98476.56
2022-11-25T13:11:15.885Z,98470.44
2022-11-25T13:13:50.140Z,98475.75
2022-11-25T13:16:19.715Z,98469.72
2022-11-25T13:18:47.236Z,98468.03
2022-11-25T13:21:15.623Z,98479.44
2022-11-25T13:23:49.926Z,98484.69
2022-11-25T13:26:28.754Z,98471.63
2022-11-25T13:29:00.245Z,98483.84
2022-11-25T13:31:35.208Z,98495.28
2022-11-25T13:34:25.378Z,98492.75
2022-11-25T13:36:53.352Z,98498.94
2022-11-25T13:39:34.389Z,98500.91
2022-11-25T13:42:12.885Z,98512.34
2022-11-25T13:45:25.173Z,98510.66
2022-11-25T13:47:53.161Z,98508.06
2022-11-25T13:50:36.786Z,98516.00
2022-11-25T13:53:21.314Z,98523.78
2022-11-25T13:55:50.305Z,98527.34
2022-11-25T13:58:19.375Z,98528.28
2022-11-25T14:00:50.855Z,98524.84
2022-11-25T14:03:20.509Z,98525.63
2022-11-25T14:06:00.043Z,98539.53
2022-11-25T14:08:35.705Z,98541.22
2022-11-25T14:11:11.365Z,98545.50
2022-11-25T14:13:57.698Z,98543.69
2022-11-25T14:16:45.735Z,98543.56
2022-11-25T14:22:40.741Z,98551.00
2022-11-25T14:25:26.936Z,98551.84
2022-11-25T14:28:18.903Z,98566.09
2022-11-25T14:30:53.557Z,98568.66
2022-11-25T14:34:01.593Z,98565.13
2022-11-25T14:36:33.769Z,98566.16
2022-11-25T14:39:06.247Z,98568.78
2022-11-25T14:41:41.666Z,98568.78
2022-11-25T14:44:17.192Z,98574.13
2022-11-25T14:46:54.663Z,98574.13
2022-11-25T14:49:46.684Z,98582.94
2022-11-25T14:52:11.148Z,98588.97
2022-11-25T14:54:43.462Z,98592.44
2022-11-25T14:57:10.626Z,98586.28
2022-11-25T14:59:43.683Z,98582.06
2022-11-25T15:02:29.999Z,98589.94
2022-11-25T15:05:08.396Z,98599.59
2022-11-25T15:07:35.339Z,98598.75
2022-11-25T15:10:02.060Z,98602.22
2022-11-25T15:12:33.009Z,98602.16
2022-11-25T15:15:00.135Z,98608.31
2022-11-25T15:17:32.018Z,98599.56
2022-11-25T15:20:03.844Z,98611.88
2022-11-25T15:22:31.571Z,98608.38
2022-11-25T15:25:08.329Z,98613.59
2022-11-25T15:27:34.827Z,98621.50
2022-11-25T15:30:01.316Z,98621.50
2022-11-25T15:32:30.843Z,98625.00
2022-11-25T15:35:00.407Z,98615.44
2022-11-25T15:37:27.744Z,98628.50
2022-11-25T15:40:31.952Z,98623.34
2022-11-25T15:43:04.494Z,98638.19
2022-11-25T15:46:00.823Z,98645.25
2022-11-25T15:48:49.520Z,98637.44
2022-11-25T15:51:49.020Z,98652.22
2022-11-25T15:54:21.759Z,98656.63
2022-11-25T15:56:51.219Z,98653.09
2022-11-25T15:59:47.431Z,98650.56
2022-11-25T16:02:34.366Z,98651.50
2022-11-25T16:05:13.144Z,98654.03
2022-11-25T16:07:51.932Z,98658.44
2022-11-25T16:10:32.248Z,98657.56
2022-11-25T16:13:23.895Z,98660.16
2022-11-25T16:16:07.735Z,98665.47
2022-11-25T16:18:41.206Z,98659.31
2022-11-25T16:21:12.094Z,98667.19
2022-11-25T16:23:47.434Z,98657.59
2022-11-25T16:26:36.139Z,98660.16
2022-11-25T16:29:15.552Z,98662.78
2022-11-25T16:31:42.118Z,98661.91
2022-11-25T16:34:17.301Z,98670.59
2022-11-25T16:36:44.141Z,98670.59
2022-11-25T16:39:10.854Z,98670.63
2022-11-25T16:41:38.203Z,98672.38
2022-11-25T16:44:08.699Z,98674.09
2022-11-25T16:46:35.659Z,98673.25
2022-11-25T16:49:12.860Z,98684.53
2022-11-25T16:51:39.349Z,98680.16
2022-11-25T16:54:05.866Z,98681.00
2022-11-25T16:56:36.576Z,98684.50
2022-11-25T16:59:03.562Z,98689.78
2022-11-25T17:01:31.385Z,98688.09
2022-11-25T17:03:57.903Z,98695.06
2022-11-25T17:06:26.850Z,98688.09
2022-11-25T17:08:53.393Z,98700.28
2022-11-25T17:11:31.040Z,98704.66
2022-11-25T17:14:02.581Z,98716.81
2022-11-25T17:16:30.273Z,98714.25
2022-11-25T17:18:59.620Z,98722.97
2022-11-25T17:21:28.805Z,98722.94
2022-11-25T17:24:00.625Z,98727.28
2022-11-25T17:26:38.333Z,98728.13
2022-11-25T17:29:12.324Z,98724.63
2022-11-25T17:31:39.197Z,98740.31
2022-11-25T17:34:06.109Z,98742.06
2022-11-25T17:36:32.797Z,98749.00
2022-11-25T17:38:59.446Z,98742.09
2022-11-25T17:41:29.339Z,98747.31
2022-11-25T17:43:56.081Z,98755.16
2022-11-25T17:46:24.839Z,98752.56
2022-11-25T17:48:51.433Z,98759.53
2022-11-25T17:51:17.951Z,98763.91
2022-11-25T17:53:44.926Z,98770.03
2022-11-25T17:56:17.989Z,98782.19
2022-11-25T17:58:44.913Z,98778.75
2022-11-25T18:01:11.522Z,98789.22
2022-11-25T18:03:38.296Z,98782.19
2022-11-25T18:06:06.574Z,98783.94
2022-11-25T18:08:33.522Z,98794.41
2022-11-25T18:11:02.912Z,98797.03
2022-11-25T18:13:35.802Z,98798.78
2022-11-25T18:16:02.769Z,98808.38
2022-11-25T18:18:29.330Z,98808.41
2022-11-25T18:20:56.247Z,98808.41
2022-11-25T18:23:23.016Z,98818.88
2022-11-25T18:25:50.174Z,98822.34
2022-11-25T18:28:20.797Z,98818.84
2022-11-25T18:30:49.114Z,98822.28
2022-11-25T18:33:17.426Z,98827.53
2022-11-25T18:35:45.274Z,98827.50
2022-11-25T18:38:12.512Z,98836.22
2022-11-25T18:40:42.534Z,98838.84
2022-11-25T18:43:17.090Z,98837.97
2022-11-25T18:45:44.978Z,98837.97
2022-11-25T18:48:15.821Z,98842.34
2022-11-25T18:50:43.852Z,98850.16
2022-11-25T18:53:10.402Z,98845.84
2022-11-25T18:55:37.200Z,98858.03
2022-11-25T18:58:04.411Z,98865.84
2022-11-25T19:00:32.988Z,98865.88
2022-11-25T19:03:00.366Z,98868.50
2022-11-25T19:05:32.871Z,98869.34
2022-11-25T19:08:00.689Z,98873.72
2022-11-25T19:10:30.859Z,98870.22
2022-11-25T19:13:03.047Z,98872.84
2022-11-25T19:15:29.644Z,98885.03
2022-11-25T19:18:02.110Z,98881.56
2022-11-25T19:20:30.436Z,98884.13
2022-11-25T19:23:00.822Z,98885.03
2022-11-25T19:25:28.537Z,98887.63
2022-11-25T19:27:59.052Z,98898.94
2022-11-25T19:30:29.734Z,98902.41
2022-11-25T19:32:59.697Z,98906.78
2022-11-25T19:35:31.705Z,98919.78
2022-11-25T19:37:58.273Z,98921.53
2022-11-25T19:40:25.336Z,98918.06
2022-11-25T19:42:52.015Z,98918.94
2022-11-25T19:45:20.670Z,98932.00
2022-11-25T19:47:50.858Z,98931.13
2022-11-25T19:50:26.134Z,98937.22
2022-11-25T19:52:53.585Z,98942.44
2022-11-25T19:55:26.344Z,98947.66
2022-11-25T19:57:53.377Z,98954.63
2022-11-25T20:00:22.321Z,98954.63
2022-11-25T20:02:52.460Z,98954.59
2022-11-25T20:05:22.987Z,98954.59
2022-11-25T20:07:49.646Z,98958.13
2022-11-25T20:10:20.721Z,98958.09
2022-11-25T20:12:48.017Z,98965.06
2022-11-25T20:15:15.166Z,98970.28
2022-11-25T20:17:48.028Z,98967.69
2022-11-25T20:20:23.302Z,98982.47
2022-11-25T20:23:07.230Z,98987.69
2022-11-25T20:25:36.401Z,98991.19
2022-11-25T20:28:02.976Z,98994.66
2022-11-25T20:30:31.149Z,99001.63
2022-11-25T20:32:57.697Z,98993.81
2022-11-25T20:35:25.938Z,98999.91
2022-11-25T20:37:57.800Z,99001.66
2022-11-25T20:40:33.570Z,99003.38
2022-11-25T20:43:00.376Z,99006.91
2022-11-25T20:45:27.051Z,99003.38
2022-11-25T20:47:53.707Z,98999.91
2022-11-25T20:50:21.913Z,99014.69
2022-11-25T20:52:50.421Z,99008.63
2022-11-25T20:55:20.192Z,99011.25
2022-11-25T20:57:47.802Z,99007.75
2022-11-25T21:00:18.563Z,99019.94
2022-11-25T21:02:45.349Z,99020.78
2022-11-25T21:05:12.449Z,99025.16
2022-11-25T21:07:39.493Z,99026.00
2022-11-25T21:10:18.005Z,99032.09
2022-11-25T21:12:44.657Z,99039.06
2022-11-25T21:15:20.979Z,99043.41
2022-11-25T21:17:47.665Z,99043.41
2022-11-25T21:20:16.104Z,99046.00
2022-11-25T21:22:46.487Z,99054.72
2022-11-25T21:25:18.798Z,99049.50
2022-11-25T21:27:47.548Z,99046.81
2022-11-25T21:30:26.852Z,99047.69
2022-11-25T21:32:59.405Z,99046.81
2022-11-25T21:35:32.130Z,99054.63
2022-11-25T21:38:03.301Z,99062.41
2022-11-25T21:40:41.863Z,99067.66
2022-11-25T21:43:21.436Z,99066.81
2022-11-25T21:45:50.193Z,99067.72
2022-11-25T21:48:22.626Z,99076.41
2022-11-25T21:50:49.549Z,99075.59
2022-11-25T21:53:16.408Z,99075.63
2022-11-25T21:55:44.202Z,99082.59
2022-11-25T21:58:18.540Z,99090.44
2022-11-25T22:00:49.657Z,99097.41
2022-11-25T22:03:18.838Z,99093.91
2022-11-25T22:05:46.366Z,99104.38
2022-11-25T22:08:13.101Z,99106.13
2022-11-25T22:10:42.005Z,99107.00
2022-11-25T22:13:17.239Z,99104.41
2022-11-25T22:15:44.629Z,99118.31
2022-11-25T22:18:21.891Z,99120.91
2022-11-25T22:20:53.222Z,99114.81
2022-11-25T22:23:21.163Z,99116.56
2022-11-25T22:25:49.763Z,99120.94
2022-11-25T22:28:19.328Z,99122.69
2022-11-25T22:30:53.936Z,99126.16
2022-11-25T22:33:26.266Z,99132.25
2022-11-25T22:35:52.887Z,99130.50
2022-11-25T22:38:19.534Z,99144.44
2022-11-25T22:40:56.663Z,99147.03
2022-11-25T22:43:29.786Z,99150.50
2022-11-25T22:45:57.204Z,99154.84
2022-11-25T22:48:36.106Z,99148.81
2022-11-25T22:51:03.345Z,99156.63
2022-11-25T22:53:30.292Z,99155.72
2022-11-25T22:55:58.275Z,99155.75
2022-11-25T22:58:27.055Z,99161.88
2022-11-25T23:00:54.793Z,99156.66
2022-11-25T23:03:22.787Z,99166.22
2022-11-25T23:05:51.501Z,99162.75
2022-11-25T23:08:29.426Z,99162.75
2022-11-25T23:10:57.173Z,99166.25
2022-11-25T23:13:24.490Z,99167.97
2022-11-25T23:15:53.784Z,99172.38
2022-11-25T23:18:26.765Z,99173.19
2022-11-25T23:20:53.505Z,99168.84
2022-11-25T23:23:23.372Z,99171.47
2022-11-25T23:25:50.607Z,99174.09
2022-11-25T23:28:17.422Z,99168.84
2022-11-25T23:30:58.140Z,99174.94
2022-11-25T23:33:33.577Z,99174.94
2022-11-25T23:36:04.789Z,99185.38
2022-11-25T23:38:44.426Z,99181.03
2022-11-25T23:41:15.511Z,99175.81
2022-11-25T23:43:42.224Z,99184.50
2022-11-25T23:46:10.362Z,99183.63
2022-11-25T23:48:36.979Z,99188.84
2022-11-25T23:51:03.651Z,99189.69
2022-11-25T23:53:33.235Z,99187.16
2022-11-25T23:56:00.009Z,99190.59
2022-11-25T23:58:26.631Z,99201.06
